AMX851 MMMX-MMMY
Flight info
| Callsign | AMX851 |
|---|---|
| Flight time | N/A |
| Altitude | 38000 |
| Route | AXIRI2A AXIRI UT138 TALPU DCT RETOS RETOS1A |
| Aircraft | B789/H-SDE1E2E3FGHIJ2J3J4J5M1RWXY/LB1D1 |
Departure
| Time | N/A |
|---|---|
| Airport | Mexico City Benito Juárez International Airport (MMMX) |
Arrival
| Time | 2026-05-01 07:31 |
|---|---|
| Airport | Monterrey International Airport (MMMY) |
| Time | Latitude | Longitude | Altitude | Speed | Heading |
|---|---|---|---|---|---|
| 2026-05-01 07:23 | 25.54736 | -99.83205 | 9701 ft | 201 kts | 307° |
| 2026-05-01 07:23 | 25.55980 | -99.84694 | 9426 ft | 195 kts | 307° |
| 2026-05-01 07:24 | 25.56913 | -99.85819 | 9244 ft | 199 kts | 307° |
| 2026-05-01 07:24 | 25.57769 | -99.87006 | 9109 ft | 192 kts | 296° |
| 2026-05-01 07:24 | 25.58341 | -99.88317 | 8824 ft | 192 kts | 285° |
| 2026-05-01 07:24 | 25.58833 | -99.89689 | 8468 ft | 192 kts | 288° |
| 2026-05-01 07:25 | 25.59401 | -99.91048 | 8087 ft | 196 kts | 293° |
| 2026-05-01 07:25 | 25.60005 | -99.92388 | 7821 ft | 191 kts | 295° |
| 2026-05-01 07:25 | 25.61000 | -99.93306 | 7619 ft | 195 kts | 333° |
| 2026-05-01 07:25 | 25.62074 | -99.94192 | 7298 ft | 183 kts | 303° |
| 2026-05-01 07:26 | 25.62555 | -99.95400 | 6835 ft | 172 kts | 281° |
| 2026-05-01 07:26 | 25.62910 | -99.96692 | 5942 ft | 181 kts | 288° |
| 2026-05-01 07:26 | 25.63363 | -99.98058 | 4729 ft | 198 kts | 291° |
| 2026-05-01 07:26 | 25.63770 | -99.98983 | 3965 ft | 204 kts | 298° |
| 2026-05-01 07:27 | 25.64444 | -100.00227 | 3680 ft | 178 kts | 302° |
| 2026-05-01 07:27 | 25.65356 | -100.01702 | 3333 ft | 172 kts | 307° |
| 2026-05-01 07:27 | 25.66244 | -100.02493 | 3162 ft | 162 kts | 341° |
| 2026-05-01 07:27 | 25.66976 | -100.02711 | 3138 ft | 160 kts | 355° |
| 2026-05-01 07:28 | 25.68111 | -100.02854 | 2990 ft | 167 kts | 357° |
| 2026-05-01 07:28 | 25.69233 | -100.02950 | 2761 ft | 159 kts | 0° |
| 2026-05-01 07:28 | 25.70301 | -100.03071 | 2860 ft | 160 kts | 355° |
| 2026-05-01 07:28 | 25.71420 | -100.03189 | 2993 ft | 159 kts | 357° |
| 2026-05-01 07:29 | 25.72534 | -100.03293 | 3126 ft | 163 kts | 358° |
| 2026-05-01 07:29 | 25.73617 | -100.03680 | 3012 ft | 171 kts | 327° |
| 2026-05-01 07:29 | 25.74538 | -100.04497 | 2563 ft | 164 kts | 303° |
| 2026-05-01 07:29 | 25.75079 | -100.05600 | 2252 ft | 164 kts | 294° |
| 2026-05-01 07:30 | 25.75635 | -100.06717 | 2024 ft | 166 kts | 304° |
| 2026-05-01 07:30 | 25.76251 | -100.07804 | 1746 ft | 166 kts | 303° |
| 2026-05-01 07:30 | 25.76872 | -100.08914 | 1427 ft | 173 kts | 301° |
| 2026-05-01 07:30 | 25.77469 | -100.10000 | 1344 ft | 149 kts | 301° |
| 2026-05-01 07:31 | 25.77871 | -100.10727 | 1336 ft | 69 kts | 301° |
| 2026-05-01 07:31 | 25.78112 | -100.11189 | 1336 ft | 14 kts | 273° |
| 2026-05-01 07:32 | 25.77975 | -100.11280 | 1336 ft | 10 kts | 180° |
| 2026-05-01 07:32 | 25.77938 | -100.11248 | 1336 ft | 6 kts | 125° |
| 2026-05-01 07:33 | 25.77891 | -100.11168 | 1336 ft | 7 kts | 121° |
| 2026-05-01 07:33 | 25.77865 | -100.11122 | 1336 ft | 7 kts | 121° |
| 2026-05-01 07:33 | 25.77827 | -100.11116 | 1336 ft | 5 kts | 203° |
| 2026-05-01 07:34 | 25.77781 | -100.11145 | 1336 ft | 10 kts | 206° |
| 2026-05-01 07:34 | 25.77699 | -100.11116 | 1336 ft | 6 kts | 124° |
| 2026-05-01 07:34 | 25.77684 | -100.11108 | 1336 ft | 3 kts | 170° |
| 2026-05-01 07:35 | 25.77659 | -100.11119 | 1336 ft | 4 kts | 214° |
| 2026-05-01 07:35 | 25.77635 | -100.11136 | 1336 ft | 0 kts | 213° |